sensor_id;sensor_type;location;lat;lon;timestamp;P1;durP1;ratioP1;P2;durP2;ratioP2
17993;SDS011;9122;48.406;9.984;2023-02-02T00:00:59;7.33;;;3.60;;
17993;SDS011;9122;48.406;9.984;2023-02-02T00:03:47;5.37;;;3.10;;
17993;SDS011;9122;48.406;9.984;2023-02-02T00:06:33;5.97;;;3.43;;
17993;SDS011;9122;48.406;9.984;2023-02-02T00:09:18;9.20;;;4.03;;
17993;SDS011;9122;48.406;9.984;2023-02-02T00:12:03;8.03;;;3.33;;
17993;SDS011;9122;48.406;9.984;2023-02-02T00:14:48;6.17;;;2.93;;
17993;SDS011;9122;48.406;9.984;2023-02-02T00:17:33;6.80;;;3.13;;
17993;SDS011;9122;48.406;9.984;2023-02-02T00:20:20;5.40;;;3.23;;
17993;SDS011;9122;48.406;9.984;2023-02-02T00:23:05;4.77;;;3.23;;
17993;SDS011;9122;48.406;9.984;2023-02-02T00:25:49;7.90;;;3.80;;
17993;SDS011;9122;48.406;9.984;2023-02-02T00:28:34;7.23;;;3.07;;
17993;SDS011;9122;48.406;9.984;2023-02-02T00:31:19;5.67;;;3.80;;
17993;SDS011;9122;48.406;9.984;2023-02-02T00:34:03;5.37;;;3.63;;
17993;SDS011;9122;48.406;9.984;2023-02-02T00:36:48;7.57;;;4.40;;
17993;SDS011;9122;48.406;9.984;2023-02-02T00:39:33;8.20;;;3.40;;
17993;SDS011;9122;48.406;9.984;2023-02-02T00:42:18;10.20;;;3.90;;
17993;SDS011;9122;48.406;9.984;2023-02-02T00:45:03;6.77;;;3.73;;
17993;SDS011;9122;48.406;9.984;2023-02-02T00:48:00;4.50;;;3.60;;
17993;SDS011;9122;48.406;9.984;2023-02-02T00:50:45;3.90;;;3.20;;
17993;SDS011;9122;48.406;9.984;2023-02-02T00:53:29;5.23;;;3.17;;
17993;SDS011;9122;48.406;9.984;2023-02-02T00:56:14;3.93;;;3.20;;
17993;SDS011;9122;48.406;9.984;2023-02-02T00:58:58;8.10;;;3.87;;
17993;SDS011;9122;48.406;9.984;2023-02-02T01:01:43;5.87;;;3.50;;
17993;SDS011;9122;48.406;9.984;2023-02-02T01:04:27;6.70;;;3.13;;
17993;SDS011;9122;48.406;9.984;2023-02-02T01:07:12;5.60;;;2.97;;
17993;SDS011;9122;48.406;9.984;2023-02-02T01:09:56;6.57;;;3.13;;
17993;SDS011;9122;48.406;9.984;2023-02-02T01:12:41;7.63;;;3.13;;
17993;SDS011;9122;48.406;9.984;2023-02-02T01:15:25;5.43;;;2.80;;
17993;SDS011;9122;48.406;9.984;2023-02-02T01:18:10;3.00;;;2.50;;
17993;SDS011;9122;48.406;9.984;2023-02-02T01:20:58;5.73;;;2.80;;
17993;SDS011;9122;48.406;9.984;2023-02-02T01:23:43;2.90;;;2.63;;
17993;SDS011;9122;48.406;9.984;2023-02-02T01:26:28;6.30;;;3.47;;
17993;SDS011;9122;48.406;9.984;2023-02-02T01:29:12;6.30;;;2.60;;
17993;SDS011;9122;48.406;9.984;2023-02-02T01:31:58;4.83;;;3.00;;
17993;SDS011;9122;48.406;9.984;2023-02-02T01:34:43;5.33;;;3.17;;
17993;SDS011;9122;48.406;9.984;2023-02-02T01:37:28;5.00;;;2.87;;
17993;SDS011;9122;48.406;9.984;2023-02-02T01:40:12;6.10;;;2.67;;
17993;SDS011;9122;48.406;9.984;2023-02-02T01:42:59;7.30;;;3.47;;
17993;SDS011;9122;48.406;9.984;2023-02-02T01:45:44;4.77;;;3.00;;
17993;SDS011;9122;48.406;9.984;2023-02-02T01:48:29;5.77;;;2.93;;
17993;SDS011;9122;48.406;9.984;2023-02-02T01:51:19;7.07;;;2.90;;
17993;SDS011;9122;48.406;9.984;2023-02-02T01:54:07;10.33;;;3.20;;
17993;SDS011;9122;48.406;9.984;2023-02-02T01:56:56;3.30;;;2.97;;
17993;SDS011;9122;48.406;9.984;2023-02-02T01:59:44;5.03;;;2.43;;
17993;SDS011;9122;48.406;9.984;2023-02-02T02:02:30;4.20;;;2.90;;
17993;SDS011;9122;48.406;9.984;2023-02-02T02:05:22;4.70;;;2.83;;
17993;SDS011;9122;48.406;9.984;2023-02-02T02:08:14;8.07;;;3.07;;
17993;SDS011;9122;48.406;9.984;2023-02-02T02:11:02;5.53;;;3.00;;
17993;SDS011;9122;48.406;9.984;2023-02-02T02:13:47;7.93;;;3.10;;
17993;SDS011;9122;48.406;9.984;2023-02-02T02:36:09;5.03;;;2.67;;
17993;SDS011;9122;48.406;9.984;2023-02-02T02:42:04;4.00;;;2.03;;
17993;SDS011;9122;48.406;9.984;2023-02-02T02:44:52;2.30;;;1.83;;
17993;SDS011;9122;48.406;9.984;2023-02-02T02:47:38;3.27;;;2.63;;
17993;SDS011;9122;48.406;9.984;2023-02-02T02:50:24;5.90;;;2.97;;
17993;SDS011;9122;48.406;9.984;2023-02-02T02:53:10;3.73;;;2.60;;
17993;SDS011;9122;48.406;9.984;2023-02-02T02:58:53;5.13;;;2.50;;
17993;SDS011;9122;48.406;9.984;2023-02-02T03:01:54;4.60;;;2.70;;
17993;SDS011;9122;48.406;9.984;2023-02-02T03:07:59;3.00;;;2.50;;
17993;SDS011;9122;48.406;9.984;2023-02-02T03:10:52;4.60;;;2.37;;
17993;SDS011;9122;48.406;9.984;2023-02-02T03:13:39;4.23;;;2.33;;
17993;SDS011;9122;48.406;9.984;2023-02-02T03:16:25;10.13;;;2.83;;
17993;SDS011;9122;48.406;9.984;2023-02-02T03:19:10;5.63;;;2.57;;
17993;SDS011;9122;48.406;9.984;2023-02-02T03:21:55;4.40;;;2.33;;
17993;SDS011;9122;48.406;9.984;2023-02-02T03:24:40;6.77;;;2.50;;
17993;SDS011;9122;48.406;9.984;2023-02-02T03:27:24;5.70;;;2.57;;
17993;SDS011;9122;48.406;9.984;2023-02-02T03:30:10;8.40;;;3.13;;
17993;SDS011;9122;48.406;9.984;2023-02-02T03:32:56;6.23;;;3.40;;
17993;SDS011;9122;48.406;9.984;2023-02-02T03:35:41;3.47;;;3.03;;
17993;SDS011;9122;48.406;9.984;2023-02-02T03:38:25;5.03;;;3.13;;
17993;SDS011;9122;48.406;9.984;2023-02-02T03:41:10;4.27;;;2.57;;
17993;SDS011;9122;48.406;9.984;2023-02-02T03:43:58;5.63;;;2.50;;
17993;SDS011;9122;48.406;9.984;2023-02-02T03:46:42;4.37;;;2.90;;
17993;SDS011;9122;48.406;9.984;2023-02-02T03:49:26;3.93;;;2.50;;
17993;SDS011;9122;48.406;9.984;2023-02-02T03:52:10;6.50;;;2.30;;
17993;SDS011;9122;48.406;9.984;2023-02-02T03:54:55;4.27;;;2.10;;
17993;SDS011;9122;48.406;9.984;2023-02-02T03:57:40;2.47;;;1.90;;
17993;SDS011;9122;48.406;9.984;2023-02-02T04:00:24;3.10;;;1.57;;
17993;SDS011;9122;48.406;9.984;2023-02-02T04:03:09;2.43;;;1.50;;
17993;SDS011;9122;48.406;9.984;2023-02-02T04:05:54;3.67;;;1.87;;
17993;SDS011;9122;48.406;9.984;2023-02-02T04:08:41;2.47;;;1.30;;
17993;SDS011;9122;48.406;9.984;2023-02-02T04:11:25;2.40;;;1.30;;
17993;SDS011;9122;48.406;9.984;2023-02-02T04:14:10;2.30;;;1.43;;
17993;SDS011;9122;48.406;9.984;2023-02-02T04:16:55;1.40;;;1.30;;
17993;SDS011;9122;48.406;9.984;2023-02-02T04:19:39;2.00;;;1.37;;
17993;SDS011;9122;48.406;9.984;2023-02-02T04:22:24;2.83;;;1.53;;
17993;SDS011;9122;48.406;9.984;2023-02-02T04:25:09;1.40;;;1.30;;
17993;SDS011;9122;48.406;9.984;2023-02-02T04:27:53;3.60;;;1.70;;
17993;SDS011;9122;48.406;9.984;2023-02-02T04:30:37;2.00;;;1.40;;
17993;SDS011;9122;48.406;9.984;2023-02-02T04:33:23;1.90;;;1.40;;
17993;SDS011;9122;48.406;9.984;2023-02-02T04:36:09;2.17;;;1.33;;
17993;SDS011;9122;48.406;9.984;2023-02-02T04:38:54;1.60;;;1.40;;
17993;SDS011;9122;48.406;9.984;2023-02-02T04:41:38;2.83;;;1.50;;
17993;SDS011;9122;48.406;9.984;2023-02-02T04:44:23;2.70;;;1.40;;
17993;SDS011;9122;48.406;9.984;2023-02-02T04:47:08;2.70;;;1.67;;
17993;SDS011;9122;48.406;9.984;2023-02-02T04:49:52;1.20;;;1.10;;
17993;SDS011;9122;48.406;9.984;2023-02-02T04:52:36;1.80;;;1.70;;
17993;SDS011;9122;48.406;9.984;2023-02-02T04:55:21;1.83;;;1.37;;
17993;SDS011;9122;48.406;9.984;2023-02-02T04:58:06;1.67;;;1.30;;
17993;SDS011;9122;48.406;9.984;2023-02-02T05:00:50;2.57;;;1.53;;
17993;SDS011;9122;48.406;9.984;2023-02-02T05:03:35;1.30;;;1.20;;
17993;SDS011;9122;48.406;9.984;2023-02-02T05:06:19;1.80;;;1.20;;
17993;SDS011;9122;48.406;9.984;2023-02-02T05:09:04;1.63;;;1.33;;
17993;SDS011;9122;48.406;9.984;2023-02-02T05:11:48;1.87;;;1.40;;
17993;SDS011;9122;48.406;9.984;2023-02-02T05:14:33;2.10;;;1.30;;
17993;SDS011;9122;48.406;9.984;2023-02-02T05:17:17;1.30;;;1.20;;
17993;SDS011;9122;48.406;9.984;2023-02-02T05:20:02;2.93;;;1.17;;
17993;SDS011;9122;48.406;9.984;2023-02-02T05:22:49;2.13;;;1.40;;
17993;SDS011;9122;48.406;9.984;2023-02-02T05:25:34;2.07;;;1.00;;
17993;SDS011;9122;48.406;9.984;2023-02-02T05:28:22;3.10;;;1.40;;
17993;SDS011;9122;48.406;9.984;2023-02-02T05:31:07;3.17;;;1.43;;
17993;SDS011;9122;48.406;9.984;2023-02-02T05:33:52;1.13;;;1.03;;
17993;SDS011;9122;48.406;9.984;2023-02-02T05:36:36;2.10;;;1.03;;
17993;SDS011;9122;48.406;9.984;2023-02-02T05:39:21;2.27;;;1.00;;
17993;SDS011;9122;48.406;9.984;2023-02-02T05:42:05;3.23;;;1.67;;
17993;SDS011;9122;48.406;9.984;2023-02-02T05:44:50;1.53;;;1.30;;
17993;SDS011;9122;48.406;9.984;2023-02-02T05:47:34;1.80;;;1.13;;
17993;SDS011;9122;48.406;9.984;2023-02-02T05:50:19;1.83;;;1.17;;
17993;SDS011;9122;48.406;9.984;2023-02-02T05:53:04;1.50;;;1.40;;
17993;SDS011;9122;48.406;9.984;2023-02-02T05:55:48;2.20;;;1.37;;
17993;SDS011;9122;48.406;9.984;2023-02-02T05:58:33;2.57;;;1.27;;
17993;SDS011;9122;48.406;9.984;2023-02-02T06:01:17;4.07;;;1.30;;
17993;SDS011;9122;48.406;9.984;2023-02-02T06:04:04;2.33;;;1.20;;
17993;SDS011;9122;48.406;9.984;2023-02-02T06:06:49;1.77;;;1.10;;
17993;SDS011;9122;48.406;9.984;2023-02-02T06:09:33;1.90;;;1.40;;
17993;SDS011;9122;48.406;9.984;2023-02-02T06:12:18;0.87;;;0.87;;
17993;SDS011;9122;48.406;9.984;2023-02-02T06:15:03;0.73;;;0.73;;
17993;SDS011;9122;48.406;9.984;2023-02-02T06:17:48;1.27;;;1.17;;
17993;SDS011;9122;48.406;9.984;2023-02-02T06:20:35;4.33;;;0.90;;
17993;SDS011;9122;48.406;9.984;2023-02-02T06:23:20;1.40;;;1.30;;
17993;SDS011;9122;48.406;9.984;2023-02-02T06:26:04;2.23;;;1.17;;
17993;SDS011;9122;48.406;9.984;2023-02-02T06:28:51;2.40;;;1.03;;
17993;SDS011;9122;48.406;9.984;2023-02-02T06:31:40;1.80;;;1.70;;
17993;SDS011;9122;48.406;9.984;2023-02-02T06:34:24;1.23;;;1.10;;
17993;SDS011;9122;48.406;9.984;2023-02-02T06:37:08;1.00;;;1.00;;
17993;SDS011;9122;48.406;9.984;2023-02-02T06:39:53;1.60;;;1.13;;
17993;SDS011;9122;48.406;9.984;2023-02-02T06:42:38;1.63;;;1.53;;
17993;SDS011;9122;48.406;9.984;2023-02-02T06:45:23;1.67;;;1.20;;
17993;SDS011;9122;48.406;9.984;2023-02-02T06:48:11;2.63;;;1.37;;
17993;SDS011;9122;48.406;9.984;2023-02-02T06:50:57;2.57;;;0.93;;
17993;SDS011;9122;48.406;9.984;2023-02-02T06:53:42;1.53;;;1.03;;
17993;SDS011;9122;48.406;9.984;2023-02-02T06:56:27;2.60;;;1.20;;
17993;SDS011;9122;48.406;9.984;2023-02-02T06:59:12;1.53;;;1.20;;
17993;SDS011;9122;48.406;9.984;2023-02-02T07:01:56;1.50;;;1.40;;
17993;SDS011;9122;48.406;9.984;2023-02-02T07:04:41;1.90;;;1.43;;
17993;SDS011;9122;48.406;9.984;2023-02-02T07:07:32;1.77;;;1.23;;
17993;SDS011;9122;48.406;9.984;2023-02-02T07:10:17;3.33;;;1.80;;
17993;SDS011;9122;48.406;9.984;2023-02-02T07:13:02;1.70;;;1.60;;
17993;SDS011;9122;48.406;9.984;2023-02-02T07:15:47;3.77;;;1.67;;
17993;SDS011;9122;48.406;9.984;2023-02-02T07:18:32;1.30;;;1.30;;
17993;SDS011;9122;48.406;9.984;2023-02-02T07:21:17;1.30;;;1.20;;
17993;SDS011;9122;48.406;9.984;2023-02-02T07:24:04;2.33;;;1.93;;
17993;SDS011;9122;48.406;9.984;2023-02-02T07:26:49;1.23;;;1.17;;
17993;SDS011;9122;48.406;9.984;2023-02-02T07:29:33;2.90;;;1.43;;
17993;SDS011;9122;48.406;9.984;2023-02-02T07:32:18;1.47;;;1.37;;
17993;SDS011;9122;48.406;9.984;2023-02-02T07:35:03;1.57;;;1.37;;
17993;SDS011;9122;48.406;9.984;2023-02-02T07:37:51;1.97;;;1.80;;
17993;SDS011;9122;48.406;9.984;2023-02-02T07:40:37;1.57;;;1.47;;
17993;SDS011;9122;48.406;9.984;2023-02-02T07:43:21;1.40;;;1.20;;
17993;SDS011;9122;48.406;9.984;2023-02-02T07:46:06;2.80;;;1.30;;
17993;SDS011;9122;48.406;9.984;2023-02-02T07:48:53;2.60;;;1.67;;
17993;SDS011;9122;48.406;9.984;2023-02-02T07:51:40;1.67;;;1.10;;
17993;SDS011;9122;48.406;9.984;2023-02-02T07:54:25;2.00;;;1.70;;
17993;SDS011;9122;48.406;9.984;2023-02-02T07:57:09;2.60;;;1.50;;
17993;SDS011;9122;48.406;9.984;2023-02-02T07:59:56;1.20;;;1.13;;
17993;SDS011;9122;48.406;9.984;2023-02-02T08:02:40;1.40;;;1.30;;
17993;SDS011;9122;48.406;9.984;2023-02-02T08:05:25;1.80;;;1.40;;
17993;SDS011;9122;48.406;9.984;2023-02-02T08:08:09;1.27;;;1.20;;
17993;SDS011;9122;48.406;9.984;2023-02-02T08:10:54;2.23;;;1.63;;
17993;SDS011;9122;48.406;9.984;2023-02-02T08:13:39;2.27;;;1.43;;
17993;SDS011;9122;48.406;9.984;2023-02-02T08:16:25;2.40;;;1.20;;
17993;SDS011;9122;48.406;9.984;2023-02-02T08:19:10;1.27;;;1.17;;
17993;SDS011;9122;48.406;9.984;2023-02-02T08:21:55;1.60;;;1.10;;
17993;SDS011;9122;48.406;9.984;2023-02-02T08:24:39;1.73;;;1.60;;
17993;SDS011;9122;48.406;9.984;2023-02-02T08:27:25;2.83;;;1.80;;
17993;SDS011;9122;48.406;9.984;2023-02-02T08:30:10;1.77;;;1.63;;
17993;SDS011;9122;48.406;9.984;2023-02-02T08:32:55;2.10;;;1.20;;
17993;SDS011;9122;48.406;9.984;2023-02-02T08:35:42;1.50;;;1.30;;
17993;SDS011;9122;48.406;9.984;2023-02-02T08:38:27;1.37;;;1.10;;
17993;SDS011;9122;48.406;9.984;2023-02-02T08:41:13;1.87;;;1.30;;
17993;SDS011;9122;48.406;9.984;2023-02-02T08:43:59;1.57;;;1.30;;
17993;SDS011;9122;48.406;9.984;2023-02-02T08:46:44;3.07;;;1.70;;
17993;SDS011;9122;48.406;9.984;2023-02-02T08:49:28;3.27;;;1.20;;
17993;SDS011;9122;48.406;9.984;2023-02-02T08:52:13;1.90;;;1.10;;
17993;SDS011;9122;48.406;9.984;2023-02-02T08:54:57;1.10;;;1.00;;
17993;SDS011;9122;48.406;9.984;2023-02-02T08:57:42;1.57;;;1.47;;
17993;SDS011;9122;48.406;9.984;2023-02-02T09:00:27;2.47;;;1.30;;
17993;SDS011;9122;48.406;9.984;2023-02-02T09:03:11;3.00;;;1.30;;
17993;SDS011;9122;48.406;9.984;2023-02-02T09:05:56;1.77;;;1.13;;
17993;SDS011;9122;48.406;9.984;2023-02-02T09:08:41;1.23;;;1.17;;
17993;SDS011;9122;48.406;9.984;2023-02-02T09:11:26;3.13;;;1.90;;
17993;SDS011;9122;48.406;9.984;2023-02-02T09:14:11;2.80;;;0.93;;
17993;SDS011;9122;48.406;9.984;2023-02-02T09:16:57;1.50;;;1.40;;
17993;SDS011;9122;48.406;9.984;2023-02-02T09:19:41;2.43;;;1.43;;
17993;SDS011;9122;48.406;9.984;2023-02-02T09:22:26;1.83;;;1.50;;
17993;SDS011;9122;48.406;9.984;2023-02-02T09:25:10;3.37;;;1.90;;
17993;SDS011;9122;48.406;9.984;2023-02-02T09:27:54;4.13;;;1.50;;
17993;SDS011;9122;48.406;9.984;2023-02-02T09:30:39;2.63;;;1.50;;
17993;SDS011;9122;48.406;9.984;2023-02-02T09:33:23;2.80;;;1.80;;
17993;SDS011;9122;48.406;9.984;2023-02-02T09:38:57;1.50;;;1.37;;
17993;SDS011;9122;48.406;9.984;2023-02-02T09:47:53;1.27;;;1.27;;
17993;SDS011;9122;48.406;9.984;2023-02-02T09:50:44;2.90;;;1.40;;
17993;SDS011;9122;48.406;9.984;2023-02-02T09:56:48;2.70;;;1.23;;
17993;SDS011;9122;48.406;9.984;2023-02-02T09:59:38;3.60;;;1.43;;
17993;SDS011;9122;48.406;9.984;2023-02-02T10:02:27;1.37;;;1.27;;
17993;SDS011;9122;48.406;9.984;2023-02-02T10:05:17;1.93;;;1.40;;
17993;SDS011;9122;48.406;9.984;2023-02-02T10:08:05;1.63;;;1.53;;
17993;SDS011;9122;48.406;9.984;2023-02-02T10:10:54;2.03;;;1.30;;
17993;SDS011;9122;48.406;9.984;2023-02-02T10:13:38;1.53;;;1.40;;
17993;SDS011;9122;48.406;9.984;2023-02-02T10:16:26;3.40;;;1.33;;
17993;SDS011;9122;48.406;9.984;2023-02-02T10:19:13;1.53;;;1.20;;
17993;SDS011;9122;48.406;9.984;2023-02-02T10:25:03;1.93;;;1.43;;
17993;SDS011;9122;48.406;9.984;2023-02-02T10:27:54;1.73;;;1.47;;
17993;SDS011;9122;48.406;9.984;2023-02-02T10:31:01;1.80;;;1.10;;
17993;SDS011;9122;48.406;9.984;2023-02-02T10:33:51;2.13;;;1.20;;
17993;SDS011;9122;48.406;9.984;2023-02-02T10:37:07;1.87;;;1.60;;
17993;SDS011;9122;48.406;9.984;2023-02-02T10:49:36;2.53;;;1.90;;
17993;SDS011;9122;48.406;9.984;2023-02-02T10:52:28;1.63;;;1.50;;
17993;SDS011;9122;48.406;9.984;2023-02-02T10:59:28;2.60;;;1.53;;
17993;SDS011;9122;48.406;9.984;2023-02-02T11:01:48;2.70;;;1.30;;
17993;SDS011;9122;48.406;9.984;2023-02-02T11:04:33;2.30;;;1.50;;
17993;SDS011;9122;48.406;9.984;2023-02-02T11:07:37;1.47;;;1.20;;
17993;SDS011;9122;48.406;9.984;2023-02-02T11:10:22;1.30;;;1.20;;
17993;SDS011;9122;48.406;9.984;2023-02-02T11:13:06;1.50;;;1.40;;
17993;SDS011;9122;48.406;9.984;2023-02-02T11:16:17;1.90;;;1.30;;
17993;SDS011;9122;48.406;9.984;2023-02-02T11:22:00;1.63;;;1.13;;
17993;SDS011;9122;48.406;9.984;2023-02-02T11:24:46;1.20;;;1.10;;
17993;SDS011;9122;48.406;9.984;2023-02-02T11:27:39;1.77;;;1.23;;
17993;SDS011;9122;48.406;9.984;2023-02-02T11:30:33;2.43;;;1.57;;
17993;SDS011;9122;48.406;9.984;2023-02-02T11:33:24;1.30;;;1.20;;
17993;SDS011;9122;48.406;9.984;2023-02-02T11:36:19;1.10;;;1.00;;
17993;SDS011;9122;48.406;9.984;2023-02-02T11:39:14;1.37;;;1.17;;
17993;SDS011;9122;48.406;9.984;2023-02-02T11:42:06;1.90;;;1.40;;
17993;SDS011;9122;48.406;9.984;2023-02-02T11:45:01;1.73;;;1.63;;
17993;SDS011;9122;48.406;9.984;2023-02-02T11:47:47;1.73;;;1.60;;
17993;SDS011;9122;48.406;9.984;2023-02-02T11:50:33;1.50;;;1.40;;
17993;SDS011;9122;48.406;9.984;2023-02-02T11:53:29;1.90;;;1.53;;
17993;SDS011;9122;48.406;9.984;2023-02-02T11:56:20;1.27;;;1.10;;
17993;SDS011;9122;48.406;9.984;2023-02-02T11:59:25;2.83;;;1.10;;
17993;SDS011;9122;48.406;9.984;2023-02-02T12:07:53;1.63;;;1.53;;
17993;SDS011;9122;48.406;9.984;2023-02-02T12:10:42;1.83;;;1.50;;
17993;SDS011;9122;48.406;9.984;2023-02-02T12:13:36;1.70;;;1.60;;
17993;SDS011;9122;48.406;9.984;2023-02-02T12:38:51;2.33;;;1.53;;
17993;SDS011;9122;48.406;9.984;2023-02-02T13:00:10;1.70;;;1.43;;
17993;SDS011;9122;48.406;9.984;2023-02-02T13:09:44;1.60;;;1.50;;
17993;SDS011;9122;48.406;9.984;2023-02-02T13:12:53;2.10;;;1.20;;
17993;SDS011;9122;48.406;9.984;2023-02-02T13:15:39;3.40;;;1.57;;
17993;SDS011;9122;48.406;9.984;2023-02-02T13:18:48;1.30;;;1.20;;
17993;SDS011;9122;48.406;9.984;2023-02-02T13:21:38;1.27;;;1.17;;
17993;SDS011;9122;48.406;9.984;2023-02-02T13:24:27;1.23;;;1.13;;
17993;SDS011;9122;48.406;9.984;2023-02-02T13:27:15;2.10;;;1.10;;
17993;SDS011;9122;48.406;9.984;2023-02-02T13:30:04;0.93;;;0.87;;
17993;SDS011;9122;48.406;9.984;2023-02-02T13:33:15;1.53;;;1.13;;
17993;SDS011;9122;48.406;9.984;2023-02-02T13:36:21;1.80;;;1.30;;
17993;SDS011;9122;48.406;9.984;2023-02-02T13:39:14;1.53;;;1.20;;
17993;SDS011;9122;48.406;9.984;2023-02-02T13:42:35;1.20;;;1.10;;
17993;SDS011;9122;48.406;9.984;2023-02-02T13:48:31;2.93;;;1.30;;
17993;SDS011;9122;48.406;9.984;2023-02-02T13:54:49;2.43;;;1.30;;
17993;SDS011;9122;48.406;9.984;2023-02-02T14:00:52;1.27;;;1.10;;
17993;SDS011;9122;48.406;9.984;2023-02-02T14:03:50;1.67;;;1.30;;
17993;SDS011;9122;48.406;9.984;2023-02-02T14:06:53;1.13;;;1.00;;
17993;SDS011;9122;48.406;9.984;2023-02-02T14:09:41;1.87;;;1.20;;
17993;SDS011;9122;48.406;9.984;2023-02-02T14:12:32;1.10;;;1.10;;
17993;SDS011;9122;48.406;9.984;2023-02-02T14:15:17;1.23;;;1.13;;
17993;SDS011;9122;48.406;9.984;2023-02-02T14:18:02;2.30;;;2.10;;
17993;SDS011;9122;48.406;9.984;2023-02-02T14:20:47;1.77;;;1.17;;
17993;SDS011;9122;48.406;9.984;2023-02-02T14:23:53;1.37;;;1.20;;
17993;SDS011;9122;48.406;9.984;2023-02-02T14:26:40;1.10;;;1.10;;
17993;SDS011;9122;48.406;9.984;2023-02-02T14:38:43;1.27;;;1.17;;
17993;SDS011;9122;48.406;9.984;2023-02-02T14:44:32;1.63;;;1.47;;
17993;SDS011;9122;48.406;9.984;2023-02-02T14:53:27;2.13;;;2.00;;
17993;SDS011;9122;48.406;9.984;2023-02-02T14:56:17;2.03;;;1.80;;
17993;SDS011;9122;48.406;9.984;2023-02-02T14:59:02;1.70;;;1.60;;
17993;SDS011;9122;48.406;9.984;2023-02-02T15:02:31;2.03;;;1.70;;
17993;SDS011;9122;48.406;9.984;2023-02-02T15:11:06;2.20;;;1.50;;
17993;SDS011;9122;48.406;9.984;2023-02-02T15:14:12;1.87;;;1.73;;
17993;SDS011;9122;48.406;9.984;2023-02-02T15:17:02;2.60;;;1.70;;
17993;SDS011;9122;48.406;9.984;2023-02-02T15:23:35;3.27;;;1.70;;
17993;SDS011;9122;48.406;9.984;2023-02-02T15:26:16;3.00;;;2.80;;
17993;SDS011;9122;48.406;9.984;2023-02-02T15:29:12;2.37;;;1.90;;
17993;SDS011;9122;48.406;9.984;2023-02-02T15:32:02;2.37;;;2.10;;
17993;SDS011;9122;48.406;9.984;2023-02-02T15:34:50;1.87;;;1.50;;
17993;SDS011;9122;48.406;9.984;2023-02-02T15:37:38;2.70;;;1.73;;
17993;SDS011;9122;48.406;9.984;2023-02-02T15:40:25;2.57;;;1.40;;
17993;SDS011;9122;48.406;9.984;2023-02-02T15:43:12;2.03;;;1.63;;
17993;SDS011;9122;48.406;9.984;2023-02-02T15:46:00;2.23;;;1.70;;
17993;SDS011;9122;48.406;9.984;2023-02-02T15:52:22;2.17;;;1.97;;
17993;SDS011;9122;48.406;9.984;2023-02-02T15:55:22;3.23;;;2.10;;
17993;SDS011;9122;48.406;9.984;2023-02-02T15:58:24;1.80;;;1.70;;
17993;SDS011;9122;48.406;9.984;2023-02-02T16:04:31;2.97;;;2.20;;
17993;SDS011;9122;48.406;9.984;2023-02-02T16:07:24;4.70;;;2.40;;
17993;SDS011;9122;48.406;9.984;2023-02-02T16:10:15;3.67;;;2.27;;
17993;SDS011;9122;48.406;9.984;2023-02-02T16:13:03;3.07;;;2.87;;
17993;SDS011;9122;48.406;9.984;2023-02-02T16:15:55;3.03;;;2.30;;
17993;SDS011;9122;48.406;9.984;2023-02-02T16:22:05;3.63;;;2.40;;
17993;SDS011;9122;48.406;9.984;2023-02-02T16:24:54;3.97;;;2.27;;
17993;SDS011;9122;48.406;9.984;2023-02-02T16:27:42;2.50;;;2.20;;
17993;SDS011;9122;48.406;9.984;2023-02-02T16:30:32;5.53;;;2.57;;
17993;SDS011;9122;48.406;9.984;2023-02-02T16:36:27;5.13;;;2.93;;
17993;SDS011;9122;48.406;9.984;2023-02-02T16:39:20;3.07;;;2.77;;
17993;SDS011;9122;48.406;9.984;2023-02-02T16:42:07;2.90;;;2.37;;
17993;SDS011;9122;48.406;9.984;2023-02-02T16:44:53;4.47;;;3.70;;
17993;SDS011;9122;48.406;9.984;2023-02-02T16:47:42;4.10;;;2.70;;
17993;SDS011;9122;48.406;9.984;2023-02-02T16:50:27;3.97;;;2.70;;
17993;SDS011;9122;48.406;9.984;2023-02-02T16:53:20;2.83;;;2.57;;
17993;SDS011;9122;48.406;9.984;2023-02-02T16:56:17;3.90;;;2.33;;
17993;SDS011;9122;48.406;9.984;2023-02-02T16:59:29;2.97;;;2.50;;
17993;SDS011;9122;48.406;9.984;2023-02-02T17:08:04;2.23;;;2.00;;
17993;SDS011;9122;48.406;9.984;2023-02-02T17:10:59;1.93;;;1.83;;
17993;SDS011;9122;48.406;9.984;2023-02-02T17:14:17;3.13;;;2.33;;
17993;SDS011;9122;48.406;9.984;2023-02-02T17:17:04;2.33;;;2.13;;
17993;SDS011;9122;48.406;9.984;2023-02-02T17:19:49;2.40;;;2.20;;
17993;SDS011;9122;48.406;9.984;2023-02-02T17:22:35;2.50;;;2.30;;
17993;SDS011;9122;48.406;9.984;2023-02-02T17:25:33;2.37;;;1.90;;
17993;SDS011;9122;48.406;9.984;2023-02-02T17:28:21;2.53;;;2.00;;
17993;SDS011;9122;48.406;9.984;2023-02-02T17:31:08;1.90;;;1.70;;
17993;SDS011;9122;48.406;9.984;2023-02-02T17:33:55;3.20;;;1.60;;
17993;SDS011;9122;48.406;9.984;2023-02-02T17:36:40;2.23;;;1.60;;
17993;SDS011;9122;48.406;9.984;2023-02-02T17:39:24;1.93;;;1.83;;
17993;SDS011;9122;48.406;9.984;2023-02-02T17:42:19;2.23;;;2.00;;
17993;SDS011;9122;48.406;9.984;2023-02-02T17:45:19;3.30;;;2.30;;
17993;SDS011;9122;48.406;9.984;2023-02-02T17:48:15;2.80;;;2.40;;
17993;SDS011;9122;48.406;9.984;2023-02-02T17:51:00;2.63;;;2.20;;
17993;SDS011;9122;48.406;9.984;2023-02-02T17:53:49;2.10;;;1.87;;
17993;SDS011;9122;48.406;9.984;2023-02-02T17:56:34;2.80;;;2.13;;
17993;SDS011;9122;48.406;9.984;2023-02-02T17:59:19;2.40;;;2.20;;
17993;SDS011;9122;48.406;9.984;2023-02-02T18:02:04;5.50;;;2.50;;
17993;SDS011;9122;48.406;9.984;2023-02-02T18:04:49;3.13;;;2.63;;
17993;SDS011;9122;48.406;9.984;2023-02-02T18:07:33;2.60;;;2.40;;
17993;SDS011;9122;48.406;9.984;2023-02-02T18:10:18;2.43;;;2.20;;
17993;SDS011;9122;48.406;9.984;2023-02-02T18:13:07;2.80;;;2.60;;
17993;SDS011;9122;48.406;9.984;2023-02-02T18:15:56;2.87;;;2.63;;
17993;SDS011;9122;48.406;9.984;2023-02-02T18:18:42;3.27;;;2.70;;
17993;SDS011;9122;48.406;9.984;2023-02-02T18:21:26;3.63;;;3.13;;
17993;SDS011;9122;48.406;9.984;2023-02-02T18:24:12;2.90;;;2.57;;
17993;SDS011;9122;48.406;9.984;2023-02-02T18:26:59;3.50;;;2.20;;
17993;SDS011;9122;48.406;9.984;2023-02-02T18:29:44;4.03;;;3.03;;
17993;SDS011;9122;48.406;9.984;2023-02-02T18:32:29;2.67;;;2.47;;
17993;SDS011;9122;48.406;9.984;2023-02-02T18:35:14;3.17;;;2.97;;
17993;SDS011;9122;48.406;9.984;2023-02-02T18:37:59;4.90;;;2.97;;
17993;SDS011;9122;48.406;9.984;2023-02-02T18:40:44;3.47;;;2.67;;
17993;SDS011;9122;48.406;9.984;2023-02-02T18:43:28;3.47;;;3.17;;
17993;SDS011;9122;48.406;9.984;2023-02-02T18:46:13;3.50;;;3.20;;
17993;SDS011;9122;48.406;9.984;2023-02-02T18:48:58;3.30;;;2.90;;
17993;SDS011;9122;48.406;9.984;2023-02-02T18:51:43;3.33;;;2.60;;
17993;SDS011;9122;48.406;9.984;2023-02-02T18:54:29;3.67;;;2.97;;
17993;SDS011;9122;48.406;9.984;2023-02-02T18:57:13;6.30;;;5.70;;
17993;SDS011;9122;48.406;9.984;2023-02-02T18:59:58;4.77;;;4.27;;
17993;SDS011;9122;48.406;9.984;2023-02-02T19:02:42;4.00;;;3.37;;
17993;SDS011;9122;48.406;9.984;2023-02-02T19:05:27;3.07;;;2.80;;
17993;SDS011;9122;48.406;9.984;2023-02-02T19:08:30;4.67;;;3.60;;
17993;SDS011;9122;48.406;9.984;2023-02-02T19:11:19;6.73;;;5.20;;
17993;SDS011;9122;48.406;9.984;2023-02-02T19:14:16;4.47;;;4.10;;
17993;SDS011;9122;48.406;9.984;2023-02-02T19:17:23;3.10;;;2.83;;
17993;SDS011;9122;48.406;9.984;2023-02-02T19:20:13;3.43;;;3.00;;
17993;SDS011;9122;48.406;9.984;2023-02-02T19:23:12;4.00;;;3.70;;
17993;SDS011;9122;48.406;9.984;2023-02-02T19:25:57;5.63;;;3.60;;
17993;SDS011;9122;48.406;9.984;2023-02-02T19:28:42;3.63;;;3.33;;
17993;SDS011;9122;48.406;9.984;2023-02-02T19:31:27;3.10;;;2.80;;
17993;SDS011;9122;48.406;9.984;2023-02-02T19:34:12;3.53;;;3.03;;
17993;SDS011;9122;48.406;9.984;2023-02-02T19:37:01;3.57;;;3.37;;
17993;SDS011;9122;48.406;9.984;2023-02-02T19:43:12;2.90;;;2.70;;
17993;SDS011;9122;48.406;9.984;2023-02-02T19:46:14;3.10;;;2.80;;
17993;SDS011;9122;48.406;9.984;2023-02-02T19:49:09;2.77;;;2.40;;
17993;SDS011;9122;48.406;9.984;2023-02-02T19:51:57;2.20;;;2.10;;
17993;SDS011;9122;48.406;9.984;2023-02-02T19:54:44;2.93;;;2.73;;
17993;SDS011;9122;48.406;9.984;2023-02-02T19:57:32;3.20;;;2.97;;
17993;SDS011;9122;48.406;9.984;2023-02-02T20:03:09;3.00;;;2.37;;